sensor_id;sensor_type;location;lat;lon;timestamp;pressure;altitude;pressure_sealevel;temperature;humidity
13013;BME280;22580;57.670;12.006;2023-11-18T00:01:05;102315.41;;;12.16;43.60
13013;BME280;22580;57.670;12.006;2023-11-18T00:03:35;102321.38;;;12.38;42.84
13013;BME280;22580;57.670;12.006;2023-11-18T00:06:02;102324.31;;;12.17;43.13
13013;BME280;22580;57.670;12.006;2023-11-18T00:08:30;102295.22;;;12.26;42.98
13013;BME280;22580;57.670;12.006;2023-11-18T00:10:57;102268.94;;;12.00;43.09
13013;BME280;22580;57.670;12.006;2023-11-18T00:13:24;102263.91;;;12.11;43.00
13013;BME280;22580;57.670;12.006;2023-11-18T00:15:52;102323.00;;;12.58;42.60
13013;BME280;22580;57.670;12.006;2023-11-18T00:18:19;102315.53;;;12.47;42.87
13013;BME280;22580;57.670;12.006;2023-11-18T00:20:47;102277.00;;;12.00;43.09
13013;BME280;22580;57.670;12.006;2023-11-18T00:23:16;102312.88;;;12.30;43.20
13013;BME280;22580;57.670;12.006;2023-11-18T00:25:43;102301.03;;;12.01;43.78
13013;BME280;22580;57.670;12.006;2023-11-18T00:28:10;102314.16;;;12.23;43.20
13013;BME280;22580;57.670;12.006;2023-11-18T00:30:37;102322.00;;;12.43;43.01
13013;BME280;22580;57.670;12.006;2023-11-18T00:33:04;102322.13;;;12.58;43.04
13013;BME280;22580;57.670;12.006;2023-11-18T00:35:31;102294.31;;;12.10;43.42
13013;BME280;22580;57.670;12.006;2023-11-18T00:38:00;102283.53;;;11.94;43.63
13013;BME280;22580;57.670;12.006;2023-11-18T00:40:28;102326.66;;;12.40;43.62
13013;BME280;22580;57.670;12.006;2023-11-18T00:42:55;102298.09;;;12.39;43.43
13013;BME280;22580;57.670;12.006;2023-11-18T00:45:23;102315.94;;;12.07;43.87
13013;BME280;22580;57.670;12.006;2023-11-18T00:47:50;102280.47;;;12.02;44.04
13013;BME280;22580;57.670;12.006;2023-11-18T00:50:17;102321.13;;;12.43;43.56
13013;BME280;22580;57.670;12.006;2023-11-18T00:52:44;102299.47;;;11.44;45.19
13013;BME280;22580;57.670;12.006;2023-11-18T00:55:15;102321.38;;;11.88;44.50
13013;BME280;22580;57.670;12.006;2023-11-18T00:57:43;102327.75;;;11.86;44.35
13013;BME280;22580;57.670;12.006;2023-11-18T01:00:12;102346.34;;;12.56;44.12
13013;BME280;22580;57.670;12.006;2023-11-18T01:02:41;102308.06;;;12.37;43.57
13013;BME280;22580;57.670;12.006;2023-11-18T01:05:09;102271.09;;;11.93;43.42
13013;BME280;22580;57.670;12.006;2023-11-18T01:07:36;102330.69;;;11.98;44.00
13013;BME280;22580;57.670;12.006;2023-11-18T01:10:04;102308.25;;;12.17;43.25
13013;BME280;22580;57.670;12.006;2023-11-18T01:12:33;102320.88;;;12.47;43.16
13013;BME280;22580;57.670;12.006;2023-11-18T01:15:00;102352.28;;;12.45;43.14
13013;BME280;22580;57.670;12.006;2023-11-18T01:17:28;102299.13;;;12.36;42.81
13013;BME280;22580;57.670;12.006;2023-11-18T01:19:57;102352.91;;;12.84;42.78
13013;BME280;22580;57.670;12.006;2023-11-18T01:22:23;102306.47;;;12.66;42.23
13013;BME280;22580;57.670;12.006;2023-11-18T01:24:50;102277.97;;;12.47;42.52
13013;BME280;22580;57.670;12.006;2023-11-18T01:27:18;102266.50;;;12.28;42.38
13013;BME280;22580;57.670;12.006;2023-11-18T01:29:48;102293.72;;;12.54;42.16
13013;BME280;22580;57.670;12.006;2023-11-18T01:32:14;102346.22;;;13.06;41.76
13013;BME280;22580;57.670;12.006;2023-11-18T01:34:42;102326.41;;;12.44;42.19
13013;BME280;22580;57.670;12.006;2023-11-18T01:37:15;102295.25;;;12.42;42.01
13013;BME280;22580;57.670;12.006;2023-11-18T01:39:42;102337.47;;;13.03;41.48
13013;BME280;22580;57.670;12.006;2023-11-18T01:42:09;102305.25;;;12.56;42.01
13013;BME280;22580;57.670;12.006;2023-11-18T01:44:37;102341.56;;;12.45;42.20
13013;BME280;22580;57.670;12.006;2023-11-18T01:47:07;102338.44;;;12.20;42.55
13013;BME280;22580;57.670;12.006;2023-11-18T01:49:37;102352.84;;;12.35;42.35
13013;BME280;22580;57.670;12.006;2023-11-18T01:52:06;102311.53;;;12.22;42.43
13013;BME280;22580;57.670;12.006;2023-11-18T01:54:36;102349.56;;;12.63;41.96
13013;BME280;22580;57.670;12.006;2023-11-18T01:57:05;102338.38;;;12.55;42.26
13013;BME280;22580;57.670;12.006;2023-11-18T01:59:34;102341.28;;;12.67;41.84
13013;BME280;22580;57.670;12.006;2023-11-18T02:02:05;102318.16;;;12.65;41.81
13013;BME280;22580;57.670;12.006;2023-11-18T02:04:32;102344.97;;;12.98;41.68
13013;BME280;22580;57.670;12.006;2023-11-18T02:07:00;102351.50;;;13.08;41.33
13013;BME280;22580;57.670;12.006;2023-11-18T02:09:29;102345.03;;;13.12;41.50
13013;BME280;22580;57.670;12.006;2023-11-18T02:12:03;102343.19;;;13.12;41.15
13013;BME280;22580;57.670;12.006;2023-11-18T02:14:39;102342.34;;;12.96;40.99
13013;BME280;22580;57.670;12.006;2023-11-18T02:17:09;102343.06;;;13.00;41.05
13013;BME280;22580;57.670;12.006;2023-11-18T02:19:38;102281.09;;;12.56;41.15
13013;BME280;22580;57.670;12.006;2023-11-18T02:22:07;102339.31;;;13.02;41.23
13013;BME280;22580;57.670;12.006;2023-11-18T02:24:36;102327.19;;;12.95;41.23
13013;BME280;22580;57.670;12.006;2023-11-18T02:27:07;102339.91;;;12.76;41.44
13013;BME280;22580;57.670;12.006;2023-11-18T02:29:38;102327.59;;;13.03;41.10
13013;BME280;22580;57.670;12.006;2023-11-18T02:32:15;102311.59;;;12.70;40.98
13013;BME280;22580;57.670;12.006;2023-11-18T02:34:52;102293.69;;;12.87;41.08
13013;BME280;22580;57.670;12.006;2023-11-18T02:37:25;102314.91;;;12.91;41.28
13013;BME280;22580;57.670;12.006;2023-11-18T02:39:53;102309.31;;;12.63;41.43
13013;BME280;22580;57.670;12.006;2023-11-18T02:42:26;102321.19;;;13.06;40.90
13013;BME280;22580;57.670;12.006;2023-11-18T02:44:54;102323.41;;;12.99;41.15
13013;BME280;22580;57.670;12.006;2023-11-18T02:47:25;102336.75;;;13.17;40.97
13013;BME280;22580;57.670;12.006;2023-11-18T02:49:56;102349.53;;;13.11;41.15
13013;BME280;22580;57.670;12.006;2023-11-18T02:52:32;102319.56;;;13.03;40.61
13013;BME280;22580;57.670;12.006;2023-11-18T02:54:59;102272.72;;;12.77;41.22
13013;BME280;22580;57.670;12.006;2023-11-18T02:57:28;102307.44;;;13.12;40.52
13013;BME280;22580;57.670;12.006;2023-11-18T02:59:55;102350.94;;;13.34;40.71
13013;BME280;22580;57.670;12.006;2023-11-18T03:02:23;102336.41;;;13.23;40.64
13013;BME280;22580;57.670;12.006;2023-11-18T03:04:53;102305.09;;;13.06;40.75
13013;BME280;22580;57.670;12.006;2023-11-18T03:07:20;102305.09;;;12.74;41.07
13013;BME280;22580;57.670;12.006;2023-11-18T03:09:47;102295.31;;;12.73;40.96
13013;BME280;22580;57.670;12.006;2023-11-18T03:12:13;102289.44;;;12.67;41.02
13013;BME280;22580;57.670;12.006;2023-11-18T03:14:43;102318.00;;;12.68;41.41
13013;BME280;22580;57.670;12.006;2023-11-18T03:17:10;102356.63;;;12.81;41.16
13013;BME280;22580;57.670;12.006;2023-11-18T03:19:37;102326.91;;;12.68;41.09
13013;BME280;22580;57.670;12.006;2023-11-18T03:22:04;102284.03;;;12.51;41.53
13013;BME280;22580;57.670;12.006;2023-11-18T03:24:31;102337.13;;;13.09;40.96
13013;BME280;22580;57.670;12.006;2023-11-18T03:26:58;102321.88;;;12.29;42.50
13013;BME280;22580;57.670;12.006;2023-11-18T03:29:26;102337.63;;;12.35;42.58
13013;BME280;22580;57.670;12.006;2023-11-18T03:31:54;102335.91;;;12.34;42.61
13013;BME280;22580;57.670;12.006;2023-11-18T03:34:21;102283.38;;;11.97;42.99
13013;BME280;22580;57.670;12.006;2023-11-18T03:36:48;102332.50;;;12.31;43.18
13013;BME280;22580;57.670;12.006;2023-11-18T03:39:16;102304.75;;;12.32;42.37
13013;BME280;22580;57.670;12.006;2023-11-18T03:41:43;102222.81;;;12.26;41.98
13013;BME280;22580;57.670;12.006;2023-11-18T03:44:11;102335.59;;;12.89;41.93
13013;BME280;22580;57.670;12.006;2023-11-18T03:46:37;102329.94;;;13.09;41.24
13013;BME280;22580;57.670;12.006;2023-11-18T03:49:06;102333.94;;;12.87;41.67
13013;BME280;22580;57.670;12.006;2023-11-18T03:51:33;102285.56;;;12.39;42.28
13013;BME280;22580;57.670;12.006;2023-11-18T03:54:00;102318.31;;;12.62;42.00
13013;BME280;22580;57.670;12.006;2023-11-18T03:56:27;102325.50;;;12.61;42.14
13013;BME280;22580;57.670;12.006;2023-11-18T03:58:55;102329.22;;;12.59;42.19
13013;BME280;22580;57.670;12.006;2023-11-18T04:01:24;102302.88;;;12.50;42.29
13013;BME280;22580;57.670;12.006;2023-11-18T04:03:52;102315.31;;;12.35;42.51
13013;BME280;22580;57.670;12.006;2023-11-18T04:06:21;102321.31;;;12.23;43.18
13013;BME280;22580;57.670;12.006;2023-11-18T04:08:50;102285.66;;;12.05;43.06
13013;BME280;22580;57.670;12.006;2023-11-18T04:11:17;102328.00;;;12.31;43.02
13013;BME280;22580;57.670;12.006;2023-11-18T04:13:44;102324.22;;;12.35;43.03
13013;BME280;22580;57.670;12.006;2023-11-18T04:16:11;102300.47;;;12.45;42.83
13013;BME280;22580;57.670;12.006;2023-11-18T04:18:39;102282.06;;;12.22;42.83
13013;BME280;22580;57.670;12.006;2023-11-18T04:21:06;102298.13;;;12.06;43.43
13013;BME280;22580;57.670;12.006;2023-11-18T04:23:36;102275.66;;;12.57;42.58
13013;BME280;22580;57.670;12.006;2023-11-18T04:26:05;102312.97;;;13.09;41.55
13013;BME280;22580;57.670;12.006;2023-11-18T04:28:32;102302.53;;;13.20;41.18
13013;BME280;22580;57.670;12.006;2023-11-18T04:31:00;102283.09;;;13.15;41.26
13013;BME280;22580;57.670;12.006;2023-11-18T04:33:28;102287.53;;;13.32;41.34
13013;BME280;22580;57.670;12.006;2023-11-18T04:35:55;102299.38;;;13.43;40.99
13013;BME280;22580;57.670;12.006;2023-11-18T04:38:23;102309.44;;;13.24;41.41
13013;BME280;22580;57.670;12.006;2023-11-18T04:40:52;102297.19;;;13.50;41.12
13013;BME280;22580;57.670;12.006;2023-11-18T04:43:20;102316.97;;;13.49;41.21
13013;BME280;22580;57.670;12.006;2023-11-18T04:45:48;102311.84;;;13.44;40.92
13013;BME280;22580;57.670;12.006;2023-11-18T04:48:15;102303.09;;;13.09;41.50
13013;BME280;22580;57.670;12.006;2023-11-18T04:50:43;102304.16;;;13.23;41.64
13013;BME280;22580;57.670;12.006;2023-11-18T04:53:09;102292.13;;;13.30;41.41
13013;BME280;22580;57.670;12.006;2023-11-18T04:55:37;102300.50;;;13.39;41.30
13013;BME280;22580;57.670;12.006;2023-11-18T04:58:06;102295.34;;;13.21;41.38
13013;BME280;22580;57.670;12.006;2023-11-18T05:00:34;102299.91;;;13.03;41.61
13013;BME280;22580;57.670;12.006;2023-11-18T05:03:03;102287.28;;;12.89;42.08
13013;BME280;22580;57.670;12.006;2023-11-18T05:05:31;102252.31;;;12.75;41.92
13013;BME280;22580;57.670;12.006;2023-11-18T05:07:58;102240.34;;;12.80;41.88
13013;BME280;22580;57.670;12.006;2023-11-18T05:10:25;102289.25;;;13.01;41.97
13013;BME280;22580;57.670;12.006;2023-11-18T05:12:52;102257.97;;;13.00;41.78
13013;BME280;22580;57.670;12.006;2023-11-18T05:15:23;102287.88;;;13.26;41.41
13013;BME280;22580;57.670;12.006;2023-11-18T05:17:51;102244.78;;;12.97;41.35
13013;BME280;22580;57.670;12.006;2023-11-18T05:20:18;102255.34;;;13.46;40.88
13013;BME280;22580;57.670;12.006;2023-11-18T05:22:46;102260.59;;;13.18;41.19
13013;BME280;22580;57.670;12.006;2023-11-18T05:25:13;102274.34;;;13.43;40.98
13013;BME280;22580;57.670;12.006;2023-11-18T05:27:40;102276.00;;;12.67;42.38
13013;BME280;22580;57.670;12.006;2023-11-18T05:30:09;102182.31;;;12.15;42.31
13013;BME280;22580;57.670;12.006;2023-11-18T05:32:38;102277.22;;;12.77;42.52
13013;BME280;22580;57.670;12.006;2023-11-18T05:35:06;102239.56;;;12.47;42.54
13013;BME280;22580;57.670;12.006;2023-11-18T05:37:37;102222.25;;;12.53;41.85
13013;BME280;22580;57.670;12.006;2023-11-18T05:40:07;102275.78;;;12.87;41.70
13013;BME280;22580;57.670;12.006;2023-11-18T05:42:35;102268.66;;;12.86;42.01
13013;BME280;22580;57.670;12.006;2023-11-18T05:45:04;102237.59;;;12.66;41.73
13013;BME280;22580;57.670;12.006;2023-11-18T05:47:33;102246.66;;;12.64;42.04
13013;BME280;22580;57.670;12.006;2023-11-18T05:50:03;102263.47;;;12.83;42.06
13013;BME280;22580;57.670;12.006;2023-11-18T05:52:31;102257.06;;;12.70;42.31
13013;BME280;22580;57.670;12.006;2023-11-18T05:54:58;102237.84;;;12.62;42.12
13013;BME280;22580;57.670;12.006;2023-11-18T05:57:25;102236.00;;;12.46;41.82
13013;BME280;22580;57.670;12.006;2023-11-18T05:59:53;102215.06;;;12.53;42.09
13013;BME280;22580;57.670;12.006;2023-11-18T06:02:20;102256.13;;;12.87;41.84
13013;BME280;22580;57.670;12.006;2023-11-18T06:04:50;102270.56;;;12.68;41.91
13013;BME280;22580;57.670;12.006;2023-11-18T06:07:21;102257.91;;;12.55;41.81
13013;BME280;22580;57.670;12.006;2023-11-18T06:09:48;102275.84;;;12.86;41.74
13013;BME280;22580;57.670;12.006;2023-11-18T06:12:15;102277.94;;;12.80;41.85
13013;BME280;22580;57.670;12.006;2023-11-18T06:14:43;102269.88;;;12.80;41.84
13013;BME280;22580;57.670;12.006;2023-11-18T06:17:12;102250.22;;;12.64;41.58
13013;BME280;22580;57.670;12.006;2023-11-18T06:19:39;102248.19;;;12.36;42.30
13013;BME280;22580;57.670;12.006;2023-11-18T06:22:06;102269.09;;;13.56;40.15
13013;BME280;22580;57.670;12.006;2023-11-18T06:24:35;102279.13;;;13.68;40.01
13013;BME280;22580;57.670;12.006;2023-11-18T06:27:04;102242.47;;;13.37;40.55
13013;BME280;22580;57.670;12.006;2023-11-18T06:29:34;102263.97;;;13.21;40.58
13013;BME280;22580;57.670;12.006;2023-11-18T06:32:01;102282.22;;;13.14;41.03
13013;BME280;22580;57.670;12.006;2023-11-18T06:34:29;102243.72;;;13.00;40.50
13013;BME280;22580;57.670;12.006;2023-11-18T06:36:56;102275.22;;;13.12;40.99
13013;BME280;22580;57.670;12.006;2023-11-18T06:39:23;102278.53;;;13.17;40.81
13013;BME280;22580;57.670;12.006;2023-11-18T06:41:57;102246.16;;;12.73;41.09
13013;BME280;22580;57.670;12.006;2023-11-18T06:44:25;102256.19;;;12.69;41.08
13013;BME280;22580;57.670;12.006;2023-11-18T06:46:51;102294.34;;;13.06;41.37
13013;BME280;22580;57.670;12.006;2023-11-18T06:49:19;102291.09;;;13.17;41.23
13013;BME280;22580;57.670;12.006;2023-11-18T06:51:46;102273.59;;;12.78;41.31
13013;BME280;22580;57.670;12.006;2023-11-18T06:54:13;102280.63;;;12.96;41.25
13013;BME280;22580;57.670;12.006;2023-11-18T06:56:40;102233.41;;;12.61;41.43
13013;BME280;22580;57.670;12.006;2023-11-18T06:59:11;102263.91;;;12.75;41.08
13013;BME280;22580;57.670;12.006;2023-11-18T07:01:38;102296.97;;;12.76;41.02
13013;BME280;22580;57.670;12.006;2023-11-18T07:04:08;102263.81;;;12.12;42.41
13013;BME280;22580;57.670;12.006;2023-11-18T07:06:35;102278.31;;;12.41;42.22
13013;BME280;22580;57.670;12.006;2023-11-18T07:09:04;102267.19;;;12.80;41.36
13013;BME280;22580;57.670;12.006;2023-11-18T07:11:38;102264.75;;;12.76;41.52
13013;BME280;22580;57.670;12.006;2023-11-18T07:14:06;102256.41;;;12.33;41.83
13013;BME280;22580;57.670;12.006;2023-11-18T07:16:37;102273.06;;;12.71;41.69
13013;BME280;22580;57.670;12.006;2023-11-18T07:19:04;102270.56;;;12.68;41.78
13013;BME280;22580;57.670;12.006;2023-11-18T07:21:31;102266.59;;;12.75;41.21
13013;BME280;22580;57.670;12.006;2023-11-18T07:23:59;102272.28;;;12.69;41.40
13013;BME280;22580;57.670;12.006;2023-11-18T07:26:26;102266.66;;;12.74;41.50
13013;BME280;22580;57.670;12.006;2023-11-18T07:28:53;102309.72;;;12.88;41.39
13013;BME280;22580;57.670;12.006;2023-11-18T07:31:20;102311.78;;;12.99;41.30
13013;BME280;22580;57.670;12.006;2023-11-18T07:33:49;102288.50;;;12.84;41.47
13013;BME280;22580;57.670;12.006;2023-11-18T07:36:16;102316.09;;;12.86;41.92
13013;BME280;22580;57.670;12.006;2023-11-18T07:38:45;102259.47;;;12.59;42.04
13013;BME280;22580;57.670;12.006;2023-11-18T07:41:12;102314.38;;;13.32;41.42
13013;BME280;22580;57.670;12.006;2023-11-18T07:43:49;102309.66;;;13.67;40.91
13013;BME280;22580;57.670;12.006;2023-11-18T07:46:16;102286.59;;;13.17;41.47
13013;BME280;22580;57.670;12.006;2023-11-18T07:48:43;102287.78;;;12.80;41.93
13013;BME280;22580;57.670;12.006;2023-11-18T07:51:13;102302.19;;;12.95;41.53
13013;BME280;22580;57.670;12.006;2023-11-18T07:53:40;102296.53;;;12.84;42.56
13013;BME280;22580;57.670;12.006;2023-11-18T07:56:08;102303.28;;;13.06;41.99
13013;BME280;22580;57.670;12.006;2023-11-18T07:58:37;102327.78;;;13.48;41.74
13013;BME280;22580;57.670;12.006;2023-11-18T08:01:04;102321.97;;;13.55;41.28
13013;BME280;22580;57.670;12.006;2023-11-18T08:03:33;102303.00;;;13.58;41.22
13013;BME280;22580;57.670;12.006;2023-11-18T08:06:00;102300.94;;;13.48;41.16
13013;BME280;22580;57.670;12.006;2023-11-18T08:08:29;102326.31;;;13.58;41.18
13013;BME280;22580;57.670;12.006;2023-11-18T08:10:57;102226.75;;;12.68;41.54
13013;BME280;22580;57.670;12.006;2023-11-18T08:13:24;102252.44;;;13.03;41.53
13013;BME280;22580;57.670;12.006;2023-11-18T08:15:51;102294.97;;;13.42;41.35
13013;BME280;22580;57.670;12.006;2023-11-18T08:18:20;102321.88;;;13.57;41.25
13013;BME280;22580;57.670;12.006;2023-11-18T08:20:50;102277.13;;;13.26;41.30
13013;BME280;22580;57.670;12.006;2023-11-18T08:23:17;102207.91;;;12.69;41.73
13013;BME280;22580;57.670;12.006;2023-11-18T08:25:46;102292.22;;;13.28;41.59
13013;BME280;22580;57.670;12.006;2023-11-18T08:28:13;102319.75;;;13.48;41.68
13013;BME280;22580;57.670;12.006;2023-11-18T08:30:40;102322.84;;;13.56;41.63
13013;BME280;22580;57.670;12.006;2023-11-18T08:33:09;102323.94;;;13.67;41.08
13013;BME280;22580;57.670;12.006;2023-11-18T08:35:36;102317.41;;;13.41;41.89
13013;BME280;22580;57.670;12.006;2023-11-18T08:38:03;102326.88;;;13.17;42.24
13013;BME280;22580;57.670;12.006;2023-11-18T08:40:32;102325.03;;;13.18;41.85
13013;BME280;22580;57.670;12.006;2023-11-18T08:43:02;102324.94;;;13.35;41.85
13013;BME280;22580;57.670;12.006;2023-11-18T08:45:33;102317.31;;;13.43;42.03
13013;BME280;22580;57.670;12.006;2023-11-18T08:48:03;102320.53;;;13.34;41.98
13013;BME280;22580;57.670;12.006;2023-11-18T08:50:36;102314.22;;;13.35;42.02
13013;BME280;22580;57.670;12.006;2023-11-18T08:53:05;102322.63;;;13.29;42.23
13013;BME280;22580;57.670;12.006;2023-11-18T08:55:37;102315.47;;;13.59;41.99
13013;BME280;22580;57.670;12.006;2023-11-18T08:58:17;102300.00;;;13.93;41.14
13013;BME280;22580;57.670;12.006;2023-11-18T09:00:54;102304.91;;;13.86;40.95
13013;BME280;22580;57.670;12.006;2023-11-18T09:03:22;102305.97;;;13.84;41.26
13013;BME280;22580;57.670;12.006;2023-11-18T09:05:55;102308.09;;;14.07;40.97
13013;BME280;22580;57.670;12.006;2023-11-18T09:08:30;102273.41;;;14.02;40.61
13013;BME280;22580;57.670;12.006;2023-11-18T09:11:00;102299.06;;;14.08;41.29
13013;BME280;22580;57.670;12.006;2023-11-18T09:13:30;102310.38;;;13.85;41.09
13013;BME280;22580;57.670;12.006;2023-11-18T09:15:57;102298.38;;;14.04;40.90
13013;BME280;22580;57.670;12.006;2023-11-18T09:18:26;102303.63;;;14.36;40.34
13013;BME280;22580;57.670;12.006;2023-11-18T09:20:53;102271.59;;;14.03;40.53
13013;BME280;22580;57.670;12.006;2023-11-18T09:23:21;102317.22;;;14.63;40.02
13013;BME280;22580;57.670;12.006;2023-11-18T09:25:51;102307.88;;;15.09;39.00
13013;BME280;22580;57.670;12.006;2023-11-18T09:28:19;102319.44;;;14.97;39.30
13013;BME280;22580;57.670;12.006;2023-11-18T09:30:47;102319.47;;;14.83;39.27
13013;BME280;22580;57.670;12.006;2023-11-18T09:33:22;102327.59;;;14.69;39.82
13013;BME280;22580;57.670;12.006;2023-11-18T09:35:58;102323.06;;;14.55;39.96
13013;BME280;22580;57.670;12.006;2023-11-18T09:38:26;102319.66;;;14.37;40.37
13013;BME280;22580;57.670;12.006;2023-11-18T09:40:57;102323.81;;;13.85;41.25
13013;BME280;22580;57.670;12.006;2023-11-18T09:43:28;102317.78;;;14.54;40.05
13013;BME280;22580;57.670;12.006;2023-11-18T09:46:03;102324.94;;;14.39;40.38
13013;BME280;22580;57.670;12.006;2023-11-18T09:48:34;102328.16;;;14.60;40.08
13013;BME280;22580;57.670;12.006;2023-11-18T09:51:06;102299.28;;;14.76;39.62
13013;BME280;22580;57.670;12.006;2023-11-18T09:53:37;102322.72;;;15.02;39.14
13013;BME280;22580;57.670;12.006;2023-11-18T09:56:09;102293.72;;;14.79;39.85
13013;BME280;22580;57.670;12.006;2023-11-18T09:58:50;102314.66;;;14.88;39.84
13013;BME280;22580;57.670;12.006;2023-11-18T10:01:24;102310.13;;;15.03;39.66
13013;BME280;22580;57.670;12.006;2023-11-18T10:03:58;102314.63;;;15.02;39.58
13013;BME280;22580;57.670;12.006;2023-11-18T10:06:33;102309.03;;;15.05;39.62
13013;BME280;22580;57.670;12.006;2023-11-18T10:09:02;102289.78;;;15.12;39.35
13013;BME280;22580;57.670;12.006;2023-11-18T10:11:41;102293.78;;;15.33;39.26
13013;BME280;22580;57.670;12.006;2023-11-18T10:14:08;102293.00;;;15.31;39.33
13013;BME280;22580;57.670;12.006;2023-11-18T10:16:37;102289.19;;;15.21;39.43
13013;BME280;22580;57.670;12.006;2023-11-18T10:19:04;102285.44;;;15.23;39.43
13013;BME280;22580;57.670;12.006;2023-11-18T10:21:37;102280.50;;;15.30;39.30
13013;BME280;22580;57.670;12.006;2023-11-18T10:24:06;102245.00;;;14.96;39.10
13013;BME280;22580;57.670;12.006;2023-11-18T10:26:41;102262.94;;;14.83;39.60
13013;BME280;22580;57.670;12.006;2023-11-18T10:29:10;102276.03;;;15.16;39.50
13013;BME280;22580;57.670;12.006;2023-11-18T10:31:39;102275.63;;;14.81;40.07
13013;BME280;22580;57.670;12.006;2023-11-18T10:34:13;102270.63;;;15.16;39.37
13013;BME280;22580;57.670;12.006;2023-11-18T10:36:42;102277.91;;;15.01;39.87
13013;BME280;22580;57.670;12.006;2023-11-18T10:39:28;102275.88;;;14.64;40.73
13013;BME280;22580;57.670;12.006;2023-11-18T10:41:59;102266.78;;;14.79;40.41
13013;BME280;22580;57.670;12.006;2023-11-18T10:44:26;102272.94;;;15.22;39.80
13013;BME280;22580;57.670;12.006;2023-11-18T10:46:56;102265.09;;;15.05;40.03
13013;BME280;22580;57.670;12.006;2023-11-18T10:49:24;102264.72;;;14.97;40.18
13013;BME280;22580;57.670;12.006;2023-11-18T10:51:52;102278.47;;;15.06;40.29
13013;BME280;22580;57.670;12.006;2023-11-18T10:54:20;102274.59;;;15.37;39.85
13013;BME280;22580;57.670;12.006;2023-11-18T10:56:48;102273.69;;;15.51;39.88
13013;BME280;22580;57.670;12.006;2023-11-18T10:59:15;102274.06;;;15.59;39.35
13013;BME280;22580;57.670;12.006;2023-11-18T11:01:44;102262.63;;;15.81;39.40
13013;BME280;22580;57.670;12.006;2023-11-18T11:04:16;102273.53;;;15.80;39.34
13013;BME280;22580;57.670;12.006;2023-11-18T11:06:47;102261.03;;;15.91;39.16
13013;BME280;22580;57.670;12.006;2023-11-18T11:09:19;102262.88;;;16.03;39.04
13013;BME280;22580;57.670;12.006;2023-11-18T11:11:53;102266.66;;;16.14;38.84
13013;BME280;22580;57.670;12.006;2023-11-18T11:14:22;102270.22;;;16.27;38.41
13013;BME280;22580;57.670;12.006;2023-11-18T11:17:03;102268.50;;;16.26;38.45
13013;BME280;22580;57.670;12.006;2023-11-18T11:19:46;102256.31;;;16.20;38.22
13013;BME280;22580;57.670;12.006;2023-11-18T11:22:24;102271.19;;;16.38;38.54
13013;BME280;22580;57.670;12.006;2023-11-18T11:25:02;102263.38;;;16.47;38.22
13013;BME280;22580;57.670;12.006;2023-11-18T11:27:41;102230.50;;;15.91;38.56
13013;BME280;22580;57.670;12.006;2023-11-18T11:30:22;102269.56;;;16.23;38.33
13013;BME280;22580;57.670;12.006;2023-11-18T11:32:51;102242.47;;;16.37;37.95
13013;BME280;22580;57.670;12.006;2023-11-18T11:35:33;102270.66;;;16.21;38.53
13013;BME280;22580;57.670;12.006;2023-11-18T11:38:04;102268.94;;;16.20;38.22
13013;BME280;22580;57.670;12.006;2023-11-18T11:40:36;102258.69;;;16.12;38.52
13013;BME280;22580;57.670;12.006;2023-11-18T11:43:06;102260.41;;;16.13;38.61
13013;BME280;22580;57.670;12.006;2023-11-18T11:45:37;102261.06;;;16.17;38.54
13013;BME280;22580;57.670;12.006;2023-11-18T11:48:06;102267.84;;;16.22;38.47
13013;BME280;22580;57.670;12.006;2023-11-18T11:50:48;102258.69;;;16.12;38.40
13013;BME280;22580;57.670;12.006;2023-11-18T11:53:24;102265.34;;;15.94;38.34
13013;BME280;22580;57.670;12.006;2023-11-18T11:55:54;102238.50;;;16.05;38.34
13013;BME280;22580;57.670;12.006;2023-11-18T11:58:33;102255.66;;;16.04;38.34
13013;BME280;22580;57.670;12.006;2023-11-18T12:01:03;102259.63;;;16.36;40.23
13013;BME280;22580;57.670;12.006;2023-11-18T12:03:43;102249.19;;;16.19;38.50
13013;BME280;22580;57.670;12.006;2023-11-18T12:06:18;102245.19;;;16.12;38.18
13013;BME280;22580;57.670;12.006;2023-11-18T12:08:49;102242.38;;;16.14;37.99
13013;BME280;22580;57.670;12.006;2023-11-18T12:11:18;102232.66;;;16.11;37.90
13013;BME280;22580;57.670;12.006;2023-11-18T12:14:00;102222.16;;;16.45;37.08
13013;BME280;22580;57.670;12.006;2023-11-18T12:17:00;102221.34;;;16.19;37.51
13013;BME280;22580;57.670;12.006;2023-11-18T12:19:33;102222.41;;;16.16;37.44
13013;BME280;22580;57.670;12.006;2023-11-18T12:22:12;102209.69;;;16.05;37.26
13013;BME280;22580;57.670;12.006;2023-11-18T12:28:14;102216.59;;;15.97;37.62
13013;BME280;22580;57.670;12.006;2023-11-18T12:30:43;102203.41;;;15.67;38.14
13013;BME280;22580;57.670;12.006;2023-11-18T12:33:19;102199.13;;;15.90;37.92
13013;BME280;22580;57.670;12.006;2023-11-18T12:39:31;102196.91;;;16.46;36.75
13013;BME280;22580;57.670;12.006;2023-11-18T12:42:08;102194.56;;;16.28;37.36
13013;BME280;22580;57.670;12.006;2023-11-18T12:44:59;102189.59;;;16.35;37.28
13013;BME280;22580;57.670;12.006;2023-11-18T12:47:37;102180.41;;;16.25;37.37
13013;BME280;22580;57.670;12.006;2023-11-18T12:50:08;102175.59;;;16.04;37.63
13013;BME280;22580;57.670;12.006;2023-11-18T12:52:43;102166.28;;;16.21;37.33
13013;BME280;22580;57.670;12.006;2023-11-18T12:55:13;102160.19;;;16.43;37.17
13013;BME280;22580;57.670;12.006;2023-11-18T12:57:46;102161.22;;;16.53;37.24
13013;BME280;22580;57.670;12.006;2023-11-18T13:00:14;102167.16;;;16.22;37.73